createdAt,value
2018-09-30T00:00:21.018Z,40.60
2018-09-30T00:02:49.288Z,40.60
2018-09-30T00:05:18.302Z,40.60
2018-09-30T00:07:46.604Z,40.50
2018-09-30T00:10:14.855Z,41.30
2018-09-30T00:12:43.111Z,40.40
2018-09-30T00:15:12.148Z,40.70
2018-09-30T00:17:40.387Z,40.60
2018-09-30T00:20:08.699Z,40.30
2018-09-30T00:22:36.949Z,40.20
2018-09-30T00:25:24.264Z,41.20
2018-09-30T00:27:52.512Z,41.00
2018-09-30T00:30:21.528Z,40.40
2018-09-30T00:32:49.812Z,40.40
2018-09-30T00:35:18.109Z,41.00
2018-09-30T00:37:46.374Z,41.60
2018-09-30T00:40:14.629Z,41.00
2018-09-30T00:42:43.756Z,41.70
2018-09-30T00:45:11.988Z,42.00
2018-09-30T00:47:40.451Z,42.40
2018-09-30T00:50:09.458Z,43.00
2018-09-30T00:52:37.746Z,42.90
2018-09-30T00:55:07.751Z,43.30
2018-09-30T00:57:36.072Z,43.10
2018-09-30T01:00:05.379Z,43.30
2018-09-30T01:02:33.611Z,43.70
2018-09-30T01:05:01.864Z,42.40
2018-09-30T01:07:30.113Z,42.80
2018-09-30T01:09:58.356Z,42.60
2018-09-30T01:12:26.622Z,43.50
2018-09-30T01:14:54.861Z,41.70
2018-09-30T01:17:23.884Z,41.50
2018-09-30T01:19:52.205Z,41.30
2018-09-30T01:22:20.434Z,40.00
2018-09-30T01:24:48.717Z,40.40
2018-09-30T01:27:17.002Z,40.50
2018-09-30T01:29:45.234Z,40.20
2018-09-30T01:32:14.257Z,39.50
2018-09-30T01:34:42.527Z,39.50
2018-09-30T01:37:10.782Z,38.90
2018-09-30T01:39:39.302Z,38.50
2018-09-30T01:42:07.573Z,38.10
2018-09-30T01:44:35.826Z,38.40
2018-09-30T01:47:04.109Z,39.30
2018-09-30T01:49:32.352Z,37.80
2018-09-30T01:52:01.399Z,37.90
2018-09-30T01:57:04.335Z,37.90
2018-09-30T01:59:32.654Z,38.00
2018-09-30T02:02:00.902Z,38.00
2018-09-30T02:04:29.944Z,38.00
2018-09-30T02:06:58.198Z,38.00
2018-09-30T02:09:26.446Z,38.70
2018-09-30T02:11:55.763Z,38.10
2018-09-30T02:14:24.020Z,38.10
2018-09-30T02:16:53.019Z,38.20
2018-09-30T02:19:21.283Z,38.10
2018-09-30T02:21:50.305Z,38.20
2018-09-30T02:24:18.584Z,38.20
2018-09-30T02:26:46.857Z,38.30
2018-09-30T02:29:15.146Z,38.30
2018-09-30T02:31:43.371Z,38.50
2018-09-30T02:34:12.669Z,38.30
2018-09-30T02:36:40.921Z,38.30
2018-09-30T02:39:09.179Z,38.40
2018-09-30T02:41:37.438Z,38.40
2018-09-30T02:44:07.801Z,38.20
2018-09-30T02:46:36.073Z,38.10
2018-09-30T02:49:04.566Z,38.30
2018-09-30T02:51:33.607Z,38.30
2018-09-30T02:54:01.867Z,38.30
2018-09-30T02:56:30.862Z,38.60
2018-09-30T02:58:59.128Z,38.50
2018-09-30T03:01:27.682Z,38.50
2018-09-30T03:03:55.964Z,38.80
2018-09-30T03:06:24.985Z,38.80
2018-09-30T03:09:08.311Z,38.60
2018-09-30T03:11:36.575Z,38.70
2018-09-30T03:14:04.825Z,38.60
2018-09-30T03:16:33.120Z,39.10
2018-09-30T03:19:02.135Z,39.00
2018-09-30T03:21:31.143Z,39.10
2018-09-30T03:23:59.432Z,38.90
2018-09-30T03:26:27.680Z,38.70
2018-09-30T03:28:55.915Z,38.60
2018-09-30T03:31:24.163Z,38.60
2018-09-30T03:33:53.370Z,38.10
2018-09-30T03:36:21.603Z,38.10
2018-09-30T03:38:49.877Z,37.90
2018-09-30T03:41:18.126Z,38.50
2018-09-30T03:43:46.388Z,38.40
2018-09-30T03:46:15.398Z,38.70
2018-09-30T03:48:43.668Z,38.60
2018-09-30T03:51:12.682Z,38.40
2018-09-30T03:53:40.942Z,38.30
2018-09-30T03:56:09.187Z,38.50
2018-09-30T03:58:37.445Z,38.50
2018-09-30T04:01:05.673Z,38.80
2018-09-30T04:03:33.914Z,38.60
2018-09-30T04:06:02.601Z,39.20
2018-09-30T04:08:30.837Z,39.30
2018-09-30T04:10:59.799Z,41.30
2018-09-30T04:13:28.063Z,40.50
2018-09-30T04:15:56.317Z,41.10
2018-09-30T04:18:24.565Z,40.40
2018-09-30T04:20:52.825Z,40.70
2018-09-30T04:23:21.091Z,41.10
2018-09-30T04:25:49.688Z,41.10
2018-09-30T04:28:17.911Z,41.40
2018-09-30T04:30:46.931Z,43.10
2018-09-30T04:33:15.247Z,43.00
2018-09-30T04:35:44.234Z,43.00
2018-09-30T04:38:12.491Z,42.90
2018-09-30T04:40:40.759Z,43.90
2018-09-30T04:43:09.309Z,43.80
2018-09-30T04:45:37.553Z,43.20
2018-09-30T04:48:05.843Z,43.40
2018-09-30T04:50:34.122Z,43.30
2018-09-30T04:53:03.155Z,43.30
2018-09-30T04:55:31.409Z,43.20
2018-09-30T04:57:59.646Z,43.20
2018-09-30T05:00:27.895Z,43.50
2018-09-30T05:02:56.144Z,43.30
2018-09-30T05:05:24.736Z,43.70
2018-09-30T05:07:52.993Z,43.20
2018-09-30T05:10:21.252Z,43.10
2018-09-30T05:12:50.576Z,43.90
2018-09-30T05:15:18.928Z,43.80
2018-09-30T05:17:47.436Z,42.90
2018-09-30T05:20:16.633Z,43.10
2018-09-30T05:22:46.099Z,43.00
2018-09-30T05:25:14.322Z,42.90
2018-09-30T05:27:42.579Z,42.70
2018-09-30T05:30:10.842Z,43.00
2018-09-30T05:32:39.114Z,43.40
2018-09-30T05:35:07.513Z,43.00
2018-09-30T05:37:36.485Z,43.60
2018-09-30T05:40:04.738Z,43.50
2018-09-30T05:42:33.286Z,43.60
2018-09-30T05:45:01.536Z,43.90
2018-09-30T05:47:29.770Z,44.20
2018-09-30T05:49:58.811Z,44.40
2018-09-30T05:52:27.072Z,44.20
2018-09-30T05:54:55.323Z,44.70
2018-09-30T05:57:24.336Z,44.50
2018-09-30T05:59:52.783Z,44.40
2018-09-30T06:02:21.056Z,44.50
2018-09-30T06:04:49.272Z,45.00
2018-09-30T06:07:17.712Z,45.00
2018-09-30T06:09:45.974Z,44.90
2018-09-30T06:12:14.231Z,45.10
2018-09-30T06:14:42.498Z,44.50
2018-09-30T06:17:10.755Z,44.90
2018-09-30T06:19:39.846Z,44.80
2018-09-30T06:22:08.181Z,44.80
2018-09-30T06:24:36.419Z,45.50
2018-09-30T06:27:04.712Z,45.30
2018-09-30T06:29:33.028Z,45.00
2018-09-30T06:32:02.084Z,46.40
2018-09-30T06:34:30.291Z,46.40
2018-09-30T06:36:59.308Z,46.00
2018-09-30T06:39:27.574Z,45.90
2018-09-30T06:41:55.834Z,46.00
2018-09-30T06:44:24.870Z,46.90
2018-09-30T06:46:53.130Z,46.90
2018-09-30T06:49:21.394Z,47.20
2018-09-30T06:51:49.639Z,47.10
2018-09-30T06:54:18.642Z,46.40
2018-09-30T06:56:48.603Z,45.40
2018-09-30T06:59:16.862Z,45.40
2018-09-30T07:01:46.155Z,45.60
2018-09-30T07:04:14.676Z,45.80
2018-09-30T07:06:42.934Z,45.90
2018-09-30T07:09:11.210Z,46.00
2018-09-30T07:11:39.488Z,46.60
2018-09-30T07:14:08.320Z,44.20
2018-09-30T07:16:37.341Z,42.70
2018-09-30T07:19:05.645Z,42.60
2018-09-30T07:21:33.880Z,42.10
2018-09-30T07:24:02.154Z,41.60
2018-09-30T07:26:30.442Z,41.40
2018-09-30T07:28:58.719Z,40.10
2018-09-30T07:31:26.997Z,40.70
2018-09-30T07:33:55.389Z,40.90
2018-09-30T07:36:23.554Z,39.70
2018-09-30T07:38:51.811Z,39.50
2018-09-30T07:41:20.081Z,40.40
2018-09-30T07:43:49.081Z,40.20
2018-09-30T07:46:17.334Z,40.10
2018-09-30T07:48:46.375Z,39.70
2018-09-30T07:51:14.628Z,39.70
2018-09-30T07:53:42.880Z,38.60
2018-09-30T07:56:11.905Z,39.10
2018-09-30T07:58:40.193Z,39.10
2018-09-30T08:01:08.536Z,39.10
2018-09-30T08:03:36.887Z,38.20
2018-09-30T08:06:05.970Z,37.70
2018-09-30T08:08:34.220Z,37.60
2018-09-30T08:11:02.482Z,37.60
2018-09-30T08:13:30.741Z,37.70
2018-09-30T08:15:58.985Z,37.80
2018-09-30T08:18:28.317Z,37.90
2018-09-30T08:20:56.604Z,37.80
2018-09-30T08:23:25.617Z,36.90
2018-09-30T08:25:53.846Z,36.80
2018-09-30T08:28:22.158Z,36.50
2018-09-30T08:30:50.470Z,36.00
2018-09-30T08:33:18.676Z,36.20
2018-09-30T08:35:47.704Z,36.10
2018-09-30T08:38:15.931Z,36.00
2018-09-30T08:40:44.234Z,36.70
2018-09-30T08:43:12.521Z,35.90
2018-09-30T08:45:40.845Z,36.20
2018-09-30T08:48:09.038Z,35.50
2018-09-30T08:50:37.315Z,35.80
2018-09-30T08:53:06.772Z,35.50
2018-09-30T08:55:35.044Z,35.10
2018-09-30T08:58:03.288Z,35.90
2018-09-30T09:00:31.774Z,36.50
2018-09-30T09:03:00.776Z,37.00
2018-09-30T09:05:29.009Z,37.00
2018-09-30T09:07:57.259Z,35.40
2018-09-30T09:10:25.519Z,35.00
2018-09-30T09:12:54.127Z,35.20
2018-09-30T09:15:22.756Z,35.40
2018-09-30T09:17:50.997Z,35.10
2018-09-30T09:20:19.263Z,34.70
2018-09-30T09:22:48.360Z,34.60
2018-09-30T09:25:16.522Z,34.50
2018-09-30T09:27:45.549Z,34.90
2018-09-30T09:30:13.881Z,34.90
2018-09-30T09:32:42.653Z,35.20
2018-09-30T09:35:11.024Z,35.00
2018-09-30T09:37:39.163Z,35.50
2018-09-30T09:40:07.411Z,34.70
2018-09-30T09:42:36.444Z,35.10
2018-09-30T09:45:04.717Z,35.10
2018-09-30T09:47:32.994Z,35.20
2018-09-30T09:50:02.080Z,35.40
2018-09-30T09:52:30.388Z,35.10
2018-09-30T09:54:58.740Z,35.50
2018-09-30T09:57:27.014Z,35.10
2018-09-30T09:59:55.358Z,35.30
2018-09-30T10:02:24.380Z,34.10
2018-09-30T10:04:52.702Z,34.10
2018-09-30T10:07:20.954Z,33.90
2018-09-30T10:09:49.279Z,33.60
2018-09-30T10:12:19.615Z,34.20
2018-09-30T10:14:47.878Z,34.60
2018-09-30T10:17:18.128Z,34.60
2018-09-30T10:19:46.379Z,34.60
2018-09-30T10:22:14.656Z,34.70
2018-09-30T10:24:42.925Z,34.20
2018-09-30T10:27:11.984Z,35.20
2018-09-30T10:29:40.241Z,35.20
2018-09-30T10:32:08.521Z,33.10
2018-09-30T10:34:36.779Z,33.00
2018-09-30T10:37:05.054Z,33.80
2018-09-30T10:39:33.473Z,33.40
2018-09-30T10:42:01.718Z,32.80
2018-09-30T10:44:30.070Z,32.80
2018-09-30T10:46:58.339Z,34.00
2018-09-30T10:49:26.589Z,32.80
2018-09-30T10:51:55.634Z,33.40
2018-09-30T10:54:23.888Z,33.30
2018-09-30T10:56:52.275Z,33.30
2018-09-30T10:59:20.458Z,32.30
2018-09-30T11:01:48.709Z,31.80
2018-09-30T11:04:17.002Z,32.20
2018-09-30T11:06:45.498Z,32.50
2018-09-30T11:09:13.776Z,31.80
2018-09-30T11:11:42.090Z,33.90
2018-09-30T11:14:10.308Z,34.60
2018-09-30T11:16:38.561Z,34.60
2018-09-30T11:19:06.835Z,32.20
2018-09-30T11:21:35.094Z,32.20
2018-09-30T11:24:04.196Z,32.70
2018-09-30T11:26:32.519Z,32.80
2018-09-30T11:29:01.537Z,32.00
2018-09-30T11:31:29.796Z,32.00
2018-09-30T11:33:58.077Z,31.90
2018-09-30T11:36:26.325Z,31.30
2018-09-30T11:38:54.603Z,31.80
2018-09-30T11:41:22.845Z,31.80
2018-09-30T11:43:51.233Z,33.80
2018-09-30T11:46:19.495Z,32.80
2018-09-30T11:48:48.548Z,31.50
2018-09-30T11:51:16.779Z,31.50
2018-09-30T11:53:45.031Z,32.00
2018-09-30T11:56:14.072Z,32.80
2018-09-30T11:58:42.329Z,32.70
2018-09-30T12:01:10.596Z,32.30
2018-09-30T12:03:38.881Z,32.90
2018-09-30T12:06:08.002Z,32.00
2018-09-30T12:08:37.034Z,33.10
2018-09-30T12:11:06.076Z,31.50
2018-09-30T12:13:34.343Z,31.30
2018-09-30T12:16:02.603Z,32.40
2018-09-30T12:18:30.856Z,32.60
2018-09-30T12:20:59.900Z,32.60
2018-09-30T12:23:28.169Z,32.60
2018-09-30T12:25:56.517Z,32.20
2018-09-30T12:28:24.753Z,32.30
2018-09-30T12:30:52.981Z,32.60
2018-09-30T12:33:21.251Z,32.40
2018-09-30T12:35:49.495Z,32.70
2018-09-30T12:38:18.497Z,32.70
2018-09-30T12:40:46.778Z,32.70
2018-09-30T12:43:15.091Z,32.60
2018-09-30T12:45:43.380Z,32.80
2018-09-30T12:48:11.642Z,32.40
2018-09-30T12:50:39.892Z,32.30
2018-09-30T12:53:08.153Z,31.80
2018-09-30T12:55:37.176Z,31.30
2018-09-30T12:58:05.736Z,31.20
2018-09-30T13:00:34.652Z,31.90
2018-09-30T13:03:02.919Z,31.90
2018-09-30T13:05:31.258Z,32.30
2018-09-30T13:07:59.514Z,35.30
2018-09-30T13:10:27.790Z,31.80
2018-09-30T13:12:56.060Z,32.70
2018-09-30T13:15:24.370Z,32.00
2018-09-30T13:17:52.630Z,32.00
2018-09-30T13:20:21.653Z,32.00
2018-09-30T13:22:49.907Z,32.00
2018-09-30T13:25:18.159Z,31.70
2018-09-30T13:27:46.997Z,31.00
2018-09-30T13:30:15.283Z,30.10
2018-09-30T13:32:43.569Z,30.90
2018-09-30T13:35:11.840Z,30.70
2018-09-30T13:37:40.165Z,31.40
2018-09-30T13:40:09.317Z,31.10
2018-09-30T13:42:37.483Z,31.00
2018-09-30T13:45:05.742Z,31.50
2018-09-30T13:47:34.016Z,30.40
2018-09-30T13:50:03.202Z,30.90
2018-09-30T13:52:31.471Z,31.00
2018-09-30T13:54:59.783Z,30.00
2018-09-30T13:57:28.037Z,30.30
2018-09-30T13:59:56.390Z,29.80
2018-09-30T14:02:26.486Z,29.80
2018-09-30T14:04:54.739Z,29.70
2018-09-30T14:07:22.970Z,29.50
2018-09-30T14:09:51.246Z,30.40
2018-09-30T14:12:19.494Z,30.00
2018-09-30T14:14:48.523Z,29.70
2018-09-30T14:17:16.779Z,29.70
2018-09-30T14:19:45.835Z,29.60
2018-09-30T14:22:14.098Z,29.60
2018-09-30T14:24:42.390Z,29.10
2018-09-30T14:27:10.749Z,29.10
2018-09-30T14:29:38.914Z,29.40
2018-09-30T14:32:07.216Z,29.20
2018-09-30T14:34:35.474Z,29.40
2018-09-30T14:37:03.744Z,30.20
2018-09-30T14:39:32.018Z,29.80
2018-09-30T14:42:00.265Z,28.80
2018-09-30T14:44:28.507Z,28.70
2018-09-30T14:46:57.548Z,28.50
2018-09-30T14:49:25.798Z,28.50
2018-09-30T14:51:54.065Z,29.70
2018-09-30T14:54:22.435Z,29.40
2018-09-30T14:56:50.634Z,29.70
2018-09-30T14:59:18.887Z,29.00
2018-09-30T15:01:47.911Z,29.40
2018-09-30T15:04:16.164Z,29.50
2018-09-30T15:06:44.473Z,29.30
2018-09-30T15:09:12.722Z,28.90
2018-09-30T15:11:40.971Z,29.50
2018-09-30T15:14:10.026Z,30.10
2018-09-30T15:16:38.322Z,30.10
2018-09-30T15:19:06.855Z,30.00
2018-09-30T15:21:35.145Z,29.70
2018-09-30T15:24:03.387Z,29.90
2018-09-30T15:26:31.735Z,30.30
2018-09-30T15:29:00.018Z,30.50
2018-09-30T15:31:28.279Z,31.60
2018-09-30T15:33:56.581Z,31.00
2018-09-30T15:36:24.873Z,31.60
2018-09-30T15:38:54.799Z,31.20
2018-09-30T15:41:23.112Z,31.20
2018-09-30T15:43:51.391Z,31.30
2018-09-30T15:46:19.656Z,35.90
2018-09-30T15:48:48.966Z,33.20
2018-09-30T15:51:17.217Z,33.20
2018-09-30T15:53:45.475Z,31.70
2018-09-30T15:56:13.763Z,31.70
2018-09-30T15:58:42.011Z,33.10
2018-09-30T16:01:10.298Z,33.30
2018-09-30T16:03:39.541Z,32.70
2018-09-30T16:06:08.364Z,32.20
2018-09-30T16:08:37.371Z,34.20
2018-09-30T16:11:05.665Z,34.00
2018-09-30T16:13:33.911Z,34.60
2018-09-30T16:16:02.169Z,35.70
2018-09-30T16:18:31.171Z,35.00
2018-09-30T16:20:59.467Z,34.90
2018-09-30T16:23:27.700Z,37.90
2018-09-30T16:25:56.715Z,36.50
2018-09-30T16:28:25.035Z,36.40
2018-09-30T16:30:53.295Z,35.80
2018-09-30T16:33:21.580Z,36.40
2018-09-30T16:35:50.662Z,39.20
2018-09-30T16:38:18.929Z,39.10
2018-09-30T16:40:47.166Z,39.30
2018-09-30T16:43:16.522Z,39.20
2018-09-30T16:45:44.790Z,39.10
2018-09-30T16:48:13.080Z,39.90
2018-09-30T16:50:41.420Z,39.80
2018-09-30T16:53:09.799Z,41.60
2018-09-30T16:55:38.065Z,42.70
2018-09-30T16:58:06.340Z,42.20
2018-09-30T17:00:35.036Z,41.40
2018-09-30T17:03:03.295Z,41.40
2018-09-30T17:05:32.585Z,41.30
2018-09-30T17:08:01.603Z,42.10
2018-09-30T17:10:30.077Z,42.00
2018-09-30T17:12:58.586Z,42.10
2018-09-30T17:15:27.592Z,42.60
2018-09-30T17:17:56.701Z,43.30
2018-09-30T17:20:25.116Z,43.60
2018-09-30T17:22:54.147Z,43.90
2018-09-30T17:25:23.159Z,43.80
2018-09-30T17:27:51.423Z,44.00
2018-09-30T17:30:19.719Z,44.30
2018-09-30T17:32:47.965Z,43.90
2018-09-30T17:35:16.296Z,44.10
2018-09-30T17:37:45.688Z,43.60
2018-09-30T17:40:13.924Z,43.60
2018-09-30T17:42:42.205Z,44.60
2018-09-30T17:45:10.478Z,45.20
2018-09-30T17:47:38.731Z,45.90
2018-09-30T17:50:07.002Z,45.40
2018-09-30T17:52:35.281Z,45.30
2018-09-30T17:55:03.549Z,45.30
2018-09-30T17:57:31.815Z,45.30
2018-09-30T18:00:00.085Z,45.50
2018-09-30T18:02:28.377Z,45.30
2018-09-30T18:04:56.705Z,45.40
2018-09-30T18:07:24.991Z,45.40
2018-09-30T18:09:53.283Z,46.30
2018-09-30T18:12:21.563Z,45.40
2018-09-30T18:14:49.836Z,45.80
2018-09-30T18:17:18.187Z,46.90
2018-09-30T18:19:46.429Z,46.40
2018-09-30T18:22:14.839Z,46.60
2018-09-30T18:24:43.134Z,46.60
2018-09-30T18:27:12.404Z,46.60
2018-09-30T18:29:40.690Z,46.60
2018-09-30T18:32:09.747Z,46.60
2018-09-30T18:34:38.867Z,47.00
2018-09-30T18:37:07.395Z,47.00
2018-09-30T18:39:35.777Z,47.30
2018-09-30T18:42:04.398Z,47.30
2018-09-30T18:44:32.885Z,46.80
2018-09-30T18:47:01.375Z,47.10
2018-09-30T18:49:30.712Z,47.10
2018-09-30T18:51:59.295Z,47.10
2018-09-30T18:54:27.858Z,47.20
2018-09-30T18:56:56.414Z,46.70
2018-09-30T18:59:26.784Z,47.30
2018-09-30T19:01:55.415Z,47.20
2018-09-30T19:04:24.013Z,47.10
2018-09-30T19:06:53.352Z,47.70
2018-09-30T19:09:21.975Z,47.70
2018-09-30T19:11:50.554Z,48.20
2018-09-30T19:14:19.123Z,48.30
2018-09-30T19:16:47.676Z,47.90
2018-09-30T19:19:16.234Z,48.10
2018-09-30T19:21:44.955Z,47.90
2018-09-30T19:24:13.410Z,48.00
2018-09-30T19:26:42.458Z,47.90
2018-09-30T19:29:10.715Z,47.80
2018-09-30T19:31:38.986Z,47.60
2018-09-30T19:34:07.375Z,47.70
2018-09-30T19:36:35.692Z,48.40
2018-09-30T19:39:03.958Z,48.90
2018-09-30T19:41:32.265Z,49.10
2018-09-30T19:44:01.348Z,49.20
2018-09-30T19:46:30.428Z,50.00
2018-09-30T19:48:59.515Z,49.50
2018-09-30T19:51:27.787Z,49.50
2018-09-30T19:53:56.098Z,49.80
2018-09-30T19:56:25.136Z,49.70
2018-09-30T19:58:53.407Z,49.50
2018-09-30T20:01:21.682Z,49.80
2018-09-30T20:03:49.943Z,49.50
2018-09-30T20:06:18.304Z,49.50
2018-09-30T20:08:46.932Z,49.40
2018-09-30T20:11:15.181Z,49.20
2018-09-30T20:13:43.443Z,49.20
2018-09-30T20:16:11.702Z,49.60
2018-09-30T20:18:39.955Z,49.70
2018-09-30T20:21:09.007Z,49.60
2018-09-30T20:23:37.243Z,49.50
2018-09-30T20:26:05.507Z,50.30
2018-09-30T20:28:34.624Z,50.80
2018-09-30T20:31:02.883Z,50.70
2018-09-30T20:33:31.906Z,50.70
2018-09-30T20:36:00.166Z,50.70
2018-09-30T20:38:28.454Z,51.20
2018-09-30T20:40:56.704Z,51.20
2018-09-30T20:43:25.034Z,51.40
2018-09-30T20:45:53.279Z,51.10
2018-09-30T20:48:21.530Z,50.70
2018-09-30T20:50:50.568Z,51.30
2018-09-30T20:53:20.460Z,51.30
2018-09-30T20:55:48.711Z,50.70
2018-09-30T20:58:17.753Z,50.70
2018-09-30T21:00:45.998Z,50.70
2018-09-30T21:03:14.266Z,51.00
2018-09-30T21:05:42.806Z,51.10
2018-09-30T21:10:45.595Z,51.80
2018-09-30T21:13:13.860Z,51.30
2018-09-30T21:15:42.111Z,51.50
2018-09-30T21:18:10.390Z,51.20
2018-09-30T21:20:38.690Z,50.60
2018-09-30T21:23:06.940Z,51.10
2018-09-30T21:25:35.261Z,51.00
2018-09-30T21:28:03.492Z,51.00
2018-09-30T21:30:32.755Z,50.90
2018-09-30T21:33:01.000Z,51.30
2018-09-30T21:35:29.281Z,51.20
2018-09-30T21:37:57.602Z,51.20
2018-09-30T21:40:25.868Z,51.50
2018-09-30T21:42:54.112Z,51.70
2018-09-30T21:45:23.487Z,52.30
2018-09-30T21:47:51.747Z,52.20
2018-09-30T21:50:19.998Z,52.40
2018-09-30T21:52:48.499Z,52.30
2018-09-30T21:55:16.759Z,52.70
2018-09-30T21:57:45.003Z,52.20
2018-09-30T22:00:14.032Z,52.80
2018-09-30T22:02:42.286Z,52.70
2018-09-30T22:05:10.539Z,52.80
2018-09-30T22:07:39.585Z,52.20
2018-09-30T22:10:08.618Z,52.70
2018-09-30T22:12:36.927Z,52.60
2018-09-30T22:15:05.192Z,53.50
2018-09-30T22:17:33.462Z,52.90
2018-09-30T22:20:02.534Z,53.30
2018-09-30T22:22:30.774Z,53.20
2018-09-30T22:24:59.043Z,53.00
2018-09-30T22:27:27.668Z,53.60
2018-09-30T22:29:55.876Z,53.60
2018-09-30T22:32:24.119Z,53.30
2018-09-30T22:34:53.149Z,52.90
2018-09-30T22:37:21.751Z,52.80
2018-09-30T22:39:49.995Z,53.40
2018-09-30T22:42:19.044Z,53.60
2018-09-30T22:44:47.475Z,53.60
2018-09-30T22:47:15.763Z,53.90
2018-09-30T22:49:44.019Z,53.20
2018-09-30T22:52:12.291Z,53.00
2018-09-30T22:54:41.330Z,53.20
2018-09-30T22:57:09.610Z,53.10
2018-09-30T22:59:38.634Z,53.60
2018-09-30T23:02:07.671Z,53.80
2018-09-30T23:04:35.988Z,53.70
2018-09-30T23:07:04.276Z,53.60
2018-09-30T23:09:32.567Z,53.90
2018-09-30T23:12:00.849Z,53.60
2018-09-30T23:14:29.110Z,54.30
2018-09-30T23:16:58.164Z,53.90
2018-09-30T23:19:26.407Z,53.80
2018-09-30T23:21:54.702Z,53.80
2018-09-30T23:24:22.950Z,53.50
2018-09-30T23:26:51.200Z,53.70
2018-09-30T23:29:20.266Z,52.90
2018-09-30T23:31:48.511Z,52.70
2018-09-30T23:34:16.767Z,52.60
2018-09-30T23:36:45.022Z,53.30
2018-09-30T23:39:14.040Z,53.00
2018-09-30T23:41:42.300Z,52.90
2018-09-30T23:44:10.555Z,54.30
2018-09-30T23:46:38.810Z,54.70
2018-09-30T23:49:07.070Z,55.00
2018-09-30T23:51:35.330Z,55.30
2018-09-30T23:54:03.579Z,54.80
2018-09-30T23:56:32.231Z,54.60
2018-09-30T23:59:00.499Z,54.70
